NFTL/HPA METAR and TAF weather

Enter ICAO airport designator
Station Type Date Time Source
NFTL METAR 2019/08/24 06:00 UTC NOAA

NFTL 240600Z 32004KT 9999 FEW010 FEW016TCU BKN035 26/25 Q1012


Station Type Date Time Source
NFTL Decoded METAR 2019/08/24 06:00 UTC NOAA

Station name not available
Aug 24, 2019 - 02:00 AM EDT / 2019.08.24 0600 UTC
Wind: from the NW (320 degrees) at 5 MPH (4 KT):0
Visibility: greater than 7 mile(s):0
Sky conditions: mostly cloudy
Weather: Towering cumulus clouds observed
Temperature: 78 F (26 C)
Dew Point: 77 F (25 C)
Relative Humidity: 94%
Pressure (altimeter): 29.88 in. Hg (1012 hPa)
ob: NFTL 240600Z 32004KT 9999 FEW010 FEW016TCU BKN035 26/25 Q1012
cycle: 6

Station Type Date Time Source
NFTL TAF 2018/02/21 17:36 UTC NOAA

TAF NFTL 211605Z 2117/2208 12010KT 9999 SCT018

Example: see airport list